Data for 11/02/2016

Time Sea-Level Adjusted Pressure Absolute Pressure Temperature Relative Humidity Dew Point   
(mb) (inHg) (mb) (inHg) (C) (F) (%) (C) (F)
00:05 1023 30.21 852 25.16 3.2 37.8 64 -2.8 26.9
00:10 1023 30.21 852 25.16 3.1 37.6 65 -2.8 27
00:15 1023 30.21 852 25.16 3 37.4 66 -2.8 27
00:20 1023 30.21 852 25.16 3 37.5 66 -2.8 27
00:25 1023 30.21 852 25.16 3.1 37.6 66 -2.6 27.4
00:30 1023 30.21 852 25.16 3.4 38.1 63 -3 26.7
00:35 1023 30.21 852 25.16 3.9 39 61 -3 26.7
00:40 1023 30.21 852 25.16 4 39.2 61 -2.8 27
00:45 1023 30.21 852 25.16 4.1 39.4 61 -2.8 27
00:50 1023 30.21 852 25.16 4.1 39.4 61 -2.6 27.2
00:55 1023 30.21 852 25.16 4.1 39.3 62 -2.6 27.3
01:00 1023 30.21 852 25.16 4.1 39.3 61 -2.8 27
01:05 1023 30.21 852 25.16 4.2 39.5 60 -2.8 26.9
01:10 1023 30.21 852 25.16 4 39.2 62 -2.6 27.4
01:15 1023 30.21 852 25.16 3.8 38.8 62 -2.8 26.9
01:20 1023 30.21 852 25.16 3.8 38.8 62 -2.8 27
01:25 1023 30.21 852 25.16 3.7 38.7 61 -3.1 26.4
01:30 1023 30.21 852 25.16 3.9 39.1 61 -2.9 26.7
01:35 1023 30.21 852 25.16 3.9 39 61 -3 26.7
01:40 1023 30.21 852 25.16 3.9 38.9 61 -3 26.6
01:45 1023 30.21 852 25.16 3.9 39 61 -2.8 26.9
01:50 1023 30.21 852 25.16 3.8 38.9 60 -3.1 26.3
01:55 1023 30.21 852 25.16 3.9 39 59 -3.4 26
02:00 1023 30.21 852 25.16 4.1 39.3 59 -3.2 26.2
02:05 1023 30.21 852 25.16 4.1 39.3 58 -3.3 26
02:10 1023 30.21 852 25.16 4.1 39.3 61 -2.8 26.9
02:15 1023 30.21 852 25.16 3.6 38.5 63 -2.8 26.9
02:20 1023 30.21 852 25.16 3.5 38.3 61 -3.4 25.9
02:25 1023 30.21 852 25.16 3.7 38.7 61 -3.1 26.4
02:30 1023 30.21 852 25.16 3.8 38.8 59 -3.4 25.8
02:35 1023 30.21 852 25.16 3.9 39.1 59 -3.3 26.1
02:40 1023 30.21 852 25.16 3.9 39.1 59 -3.2 26.2
02:45 1023 30.21 852 25.16 3.8 38.9 60 -3.3 26.1
02:50 1023 30.21 852 25.16 3.7 38.6 63 -2.8 27
02:55 1023 30.21 852 25.16 3 37.4 64 -3.2 26.3
03:00 1023 30.21 852 25.16 3.1 37.6 62 -3.4 25.8
03:05 1023 30.21 852 25.16 3.4 38.1 63 -3 26.6
03:10 1023 30.21 852 25.16 3 37.4 65 -3 26.6
03:15 1023 30.21 852 25.16 2.8 37.1 65 -3.1 26.5
03:20 1023 30.21 852 25.16 2.6 36.8 65 -3.3 26
03:25 1023 30.21 852 25.16 3.3 37.9 61 -3.6 25.5
03:30 1023 30.21 852 25.16 3.9 39 58 -3.6 25.5
03:35 1023 30.21 852 25.16 4.2 39.6 56 -3.9 25.1
03:40 1023 30.21 852 25.16 4.2 39.6 61 -2.6 27.3
03:45 1023 30.21 852 25.16 2.6 36.7 67 -2.9 26.7
03:50 1023 30.21 852 25.16 1.8 35.2 70 -3.2 26.3
03:55 1023 30.21 852 25.16 2 35.5 67 -3.5 25.6
04:00 1023 30.21 852 25.16 2 35.7 70 -2.9 26.7
04:05 1023 30.21 852 25.16 1.4 34.6 71 -3.3 26
04:10 1023 30.21 852 25.16 1.6 34.8 69 -3.4 25.9
04:15 1023 30.21 852 25.16 2.2 36 67 -3.4 26
04:20 1023 30.21 852 25.16 1.7 35.1 70 -3.1 26.4
04:25 1023 30.21 852 25.16 1.3 34.3 71 -3.5 25.7
04:30 1023 30.21 852 25.16 1.7 35 67 -3.8 25.1
04:35 1023 30.21 852 25.16 2.3 36.2 64 -3.7 25.3
04:40 1023 30.21 852 25.16 2.5 36.5 64 -3.6 25.5
04:45 1023 30.21 852 25.16 2.2 35.9 64 -3.9 25.1
04:50 1023 30.21 852 25.16 2.4 36.3 63 -3.9 25.1
04:55 1023 30.21 852 25.16 2.5 36.5 62 -4 24.9
05:00 1023 30.21 852 25.16 2.5 36.4 64 -3.7 25.4
05:05 1023 30.21 852 25.16 2.3 36.1 65 -3.7 25.3
05:10 1023 30.21 853 25.19 1.4 34.6 69 -3.7 25.4
05:15 1023 30.21 853 25.19 0.9 33.6 71 -3.9 25
05:20 1023 30.21 853 25.19 0.9 33.5 69 -4.3 24.3
05:25 1024 30.24 853 25.19 1.4 34.5 66 -4.2 24.4
05:30 1024 30.24 853 25.19 1.3 34.3 70 -3.5 25.7
05:35 1024 30.24 853 25.19 0.4 32.7 72 -4.1 24.6
05:40 1024 30.24 853 25.19 0.4 32.7 72 -4.1 24.5
05:45 1024 30.24 853 25.19 0.7 33.3 69 -4.3 24.3
05:50 1024 30.24 853 25.19 1 33.9 68 -4.1 24.5
05:55 1024 30.24 853 25.19 1.2 34.1 68 -4.2 24.5
06:00 1024 30.24 853 25.19 1 33.7 69 -4.1 24.7
06:05 1024 30.24 853 25.19 1 33.8 69 -4.1 24.6
06:10 1024 30.24 853 25.19 1.2 34.2 69 -3.8 25.1
06:15 1024 30.24 853 25.19 1.3 34.3 66 -4.3 24.3
06:20 1024 30.24 853 25.19 1.6 34.8 65 -4.3 24.3
06:25 1024 30.24 853 25.19 1.6 34.9 66 -4.1 24.5
06:30 1024 30.24 853 25.19 1.2 34.2 68 -4.1 24.7
06:35 1024 30.24 853 25.19 0.7 33.3 70 -4.2 24.5
06:40 1024 30.24 853 25.19 0.5 32.8 71 -4.2 24.5
06:45 1024 30.24 853 25.19 0.2 32.3 72 -4.3 24.3
06:50 1024 30.24 853 25.19 0.3 32.5 71 -4.4 24.1
06:55 1024 30.24 853 25.19 0.5 32.8 70 -4.4 24.1
07:00 1024 30.24 854 25.22 0.2 32.3 73 -4.2 24.5
07:05 1024 30.24 854 25.22 -0.1 31.9 73 -4.4 24.2
07:10 1025 30.27 854 25.22 -0 32 72 -4.5 23.9
07:15 1025 30.27 854 25.22 0.3 32.5 71 -4.4 24.1
07:20 1025 30.27 854 25.22 0.4 32.7 71 -4.2 24.5
07:25 1025 30.27 854 25.22 0.4 32.6 70 -4.4 24
07:30 1025 30.27 854 25.22 0.5 33 70 -4.3 24.2
07:35 1025 30.27 854 25.22 0.7 33.2 69 -4.4 24.1
07:40 1025 30.27 854 25.22 0.9 33.6 69 -4.3 24.3
07:45 1025 30.27 854 25.22 0.8 33.4 69 -4.2 24.4
07:50 1025 30.27 854 25.22 0.8 33.5 68 -4.4 24.2
07:55 1025 30.27 854 25.22 1.3 34.3 67 -4.3 24.3
08:00 1025 30.27 854 25.22 1.5 34.7 66 -4.2 24.5
08:05 1025 30.27 854 25.22 1.8 35.2 65 -4.1 24.6
08:10 1025 30.27 854 25.22 1.7 35.1 66 -4 24.8
08:15 1025 30.27 854 25.22 1.9 35.5 64 -4.1 24.7
08:20 1025 30.27 854 25.22 2.6 36.6 62 -4 24.7
08:25 1025 30.27 854 25.22 3.1 37.6 60 -4 24.8
08:30 1025 30.27 854 25.22 3.4 38.1 59 -3.8 25.2
08:35 1025 30.27 854 25.22 3.4 38.2 60 -3.6 25.5
08:40 1025 30.27 855 25.25 3.5 38.3 60 -3.6 25.6
08:45 1025 30.27 855 25.25 3.7 38.6 60 -3.5 25.8
08:50 1026 30.3 855 25.25 3.8 38.8 59 -3.4 25.8
08:55 1026 30.3 855 25.25 4 39.2 59 -3.4 26
09:00 1026 30.3 855 25.25 4.2 39.5 58 -3.2 26.2
09:05 1026 30.3 855 25.25 4.2 39.6 59 -3.1 26.3
09:10 1025 30.27 855 25.25 4.8 40.6 55 -3.4 25.8
09:15 1025 30.27 855 25.25 5.3 41.6 54 -3.3 26
09:20 1025 30.27 855 25.25 5.8 42.5 52 -3.2 26.3
09:25 1025 30.27 855 25.25 6.3 43.3 52 -2.9 26.8
09:30 1025 30.27 855 25.25 6.1 42.9 53 -2.7 27.1
09:35 1025 30.27 855 25.25 6.7 44 49 -3.4 25.9
09:40 1026 30.3 855 25.25 7.4 45.3 47 -3.2 26.3
09:45 1026 30.3 855 25.25 8.1 46.5 44 -3.6 25.6
09:50 1026 30.3 855 25.25 8.1 46.6 43 -3.8 25.2
09:55 1026 30.3 855 25.25 8.4 47 42 -3.7 25.4
10:00 1026 30.3 855 25.25 8.4 47.1 43 -3.5 25.7
10:05 1026 30.3 855 25.25 8.6 47.5 41 -3.8 25.2
10:10 1026 30.3 855 25.25 9.3 48.8 40 -3.7 25.4
10:15 1026 30.3 855 25.25 9.5 49.1 39 -3.6 25.5
10:20 1026 30.3 855 25.25 9.8 49.7 38 -3.9 25
10:25 1026 30.3 855 25.25 9.8 49.6 38 -3.9 25.1
10:30 1026 30.3 855 25.25 10 50 37 -4 24.8
10:35 1026 30.3 855 25.25 10 50 37 -3.8 25.1
10:40 1026 30.3 855 25.25 10.1 50.1 38 -3.4 25.8
10:45 1026 30.3 855 25.25 9.2 48.6 40 -3.6 25.5
10:50 1026 30.3 855 25.25 9.7 49.4 39 -3.5 25.6
10:55 1026 30.3 855 25.25 9.5 49.1 39 -3.6 25.6
11:00 1026 30.3 855 25.25 9.2 48.6 39 -3.8 25.1
11:05 1026 30.3 855 25.25 10.2 50.3 38 -3.3 26
11:10 1026 30.3 855 25.25 10.8 51.4 36 -3.6 25.4
11:15 1026 30.3 855 25.25 11.2 52.2 36 -3.4 25.9
11:20 1026 30.3 855 25.25 11.1 51.9 35 -3.8 25.1
11:25 1026 30.3 855 25.25 10.6 51.2 35 -4.1 24.7
11:30 1026 30.3 855 25.25 10.2 50.4 37 -3.7 25.4
11:35 1026 30.3 855 25.25 11.2 52.2 36 -3.4 26
11:40 1026 30.3 855 25.25 11.2 52.1 36 -3.4 25.9
11:45 1026 30.3 855 25.25 11.2 52.2 34 -4.2 24.5
11:50 1026 30.3 855 25.25 11.7 53 32 -4.3 24.3
11:55 1026 30.3 855 25.25 12 53.6 31 -4.7 23.6
12:00 1026 30.3 855 25.25 12 53.6 31 -4.5 23.9
12:05 1026 30.3 855 25.25 12.1 53.8 32 -3.9 25
12:10 1026 30.3 855 25.25 12 53.6 33 -3.6 25.5
12:15 1026 30.3 855 25.25 11.5 52.7 34 -3.9 24.9
12:20 1026 30.3 855 25.25 11.6 53 33 -4.2 24.5
12:25 1026 30.3 855 25.25 12.4 54.3 32 -3.7 25.3
12:30 1026 30.3 855 25.25 12.6 54.8 31 -3.8 25.2
12:35 1026 30.3 855 25.25 12.8 55 31 -3.9 25
12:40 1026 30.3 855 25.25 12.5 54.5 32 -3.6 25.5
12:45 1026 30.3 855 25.25 12.1 53.8 32 -4.1 24.6
12:50 1026 30.3 855 25.25 12.8 55 31 -3.7 25.3
12:55 1026 30.3 855 25.25 13.2 55.7 31 -3.6 25.5
13:00 1025 30.27 855 25.25 13.2 55.7 31 -3.7 25.3
13:05 1025 30.27 855 25.25 12.5 54.4 32 -3.9 25
13:10 1025 30.27 855 25.25 12.5 54.6 31 -4.1 24.6
13:15 1025 30.27 854 25.22 12.9 55.1 31 -3.7 25.3
13:20 1025 30.27 854 25.22 12.9 55.1 30 -4.1 24.6
13:25 1025 30.27 854 25.22 12.7 54.8 31 -3.8 25.1
13:30 1025 30.27 854 25.22 12.1 53.7 32 -4.2 24.5
13:35 1025 30.27 854 25.22 12 53.5 32 -4.1 24.6
13:40 1025 30.27 854 25.22 13.1 55.6 29 -4.5 23.9
13:45 1025 30.27 854 25.22 14.2 57.6 27 -4.3 24.2
13:50 1025 30.27 854 25.22 14.6 58.2 28 -3.8 25.1
13:55 1025 30.27 854 25.22 14 57.2 30 -3.1 26.4
14:00 1025 30.27 854 25.22 13.1 55.5 32 -3.3 26
14:05 1025 30.27 854 25.22 12.7 54.8 31 -4 24.9
14:10 1025 30.27 854 25.22 12.9 55.3 31 -3.6 25.5
14:15 1025 30.27 854 25.22 13.5 56.3 30 -3.8 25.2
14:20 1025 30.27 854 25.22 13.5 56.2 31 -3.5 25.7
14:25 1025 30.27 854 25.22 13.5 56.2 30 -3.6 25.6
14:30 1025 30.27 854 25.22 13.2 55.8 31 -3.6 25.5
14:35 1025 30.27 854 25.22 13.3 56 30 -3.6 25.5
14:40 1025 30.27 854 25.22 13.6 56.4 30 -3.6 25.6
14:45 1025 30.27 854 25.22 13.7 56.7 31 -3.1 26.5
14:50 1025 30.27 854 25.22 13.4 56 31 -3.3 26.1
14:55 1025 30.27 854 25.22 13.2 55.8 30 -3.8 25.1
15:00 1025 30.27 854 25.22 13.6 56.5 31 -3.1 26.4
15:05 1025 30.27 855 25.25 13.5 56.3 30 -3.5 25.7
15:10 1025 30.27 855 25.25 13.3 56 30 -3.7 25.3
15:15 1025 30.27 855 25.25 13.7 56.6 29 -3.8 25.1
15:20 1025 30.27 855 25.25 13.7 56.6 30 -3.6 25.5
15:25 1025 30.27 855 25.25 13.6 56.4 30 -3.7 25.3
15:30 1026 30.3 855 25.25 13.7 56.6 30 -3.5 25.7
15:35 1026 30.3 855 25.25 13.3 55.9 31 -3.5 25.7
15:40 1026 30.3 855 25.25 13.3 55.9 31 -3.5 25.6
15:45 1026 30.3 855 25.25 13.5 56.4 30 -3.7 25.4
15:50 1026 30.3 855 25.25 14.2 57.5 29 -3.7 25.3
15:55 1026 30.3 855 25.25 14.4 57.9 28 -3.9 24.9
16:00 1025 30.27 855 25.25 14.1 57.4 28 -3.9 25
16:05 1025 30.27 855 25.25 13.6 56.4 30 -3.6 25.6
16:10 1026 30.3 855 25.25 12.6 54.6 32 -3.7 25.3
16:15 1026 30.3 855 25.25 12.3 54.1 32 -3.9 25
16:20 1026 30.3 855 25.25 12.3 54.1 32 -4 24.7
16:25 1026 30.3 855 25.25 12.1 53.8 32 -4 24.9
16:30 1026 30.3 855 25.25 12 53.5 33 -3.9 25
16:35 1026 30.3 855 25.25 11.6 52.9 33 -4.2 24.5
16:40 1026 30.3 855 25.25 11.5 52.7 33 -4.2 24.5
16:45 1026 30.3 855 25.25 11.7 53 32 -4.4 24.1
16:50 1026 30.3 855 25.25 12 53.6 32 -4.2 24.4
16:55 1025 30.27 855 25.25 12.1 53.7 32 -4 24.8
17:00 1025 30.27 855 25.25 11.7 53 33 -4 24.8
17:05 1026 30.3 855 25.25 11.3 52.4 34 -4 24.7
17:10 1026 30.3 855 25.25 11.2 52.2 34 -4 24.8
17:15 1026 30.3 855 25.25 11 51.8 36 -3.5 25.7
17:20 1026 30.3 855 25.25 11 51.8 36 -3.3 26
17:25 1026 30.3 855 25.25 11 51.8 36 -3.4 25.9
17:30 1026 30.3 855 25.25 10.8 51.4 39 -2.7 27.1
17:35 1026 30.3 855 25.25 10.2 50.4 44 -1.6 29.1
17:40 1026 30.3 855 25.25 9.5 49.1 48 -0.9 30.4
17:45 1026 30.3 855 25.25 8.9 48.1 50 -0.8 30.5
17:50 1026 30.3 855 25.25 8.5 47.4 51 -0.9 30.3
17:55 1026 30.3 855 25.25 8.3 46.9 52 -0.9 30.4
18:00 1026 30.3 855 25.25 8.1 46.5 53 -0.8 30.6
18:05 1026 30.3 855 25.25 7.7 45.9 55 -0.8 30.5
18:10 1026 30.3 855 25.25 7.5 45.5 56 -0.7 30.7
18:15 1026 30.3 855 25.25 7.3 45.1 57 -0.7 30.7
18:20 1026 30.3 855 25.25 6.9 44.5 57 -1 30.3
18:25 1026 30.3 855 25.25 6.9 44.3 55 -1.6 29.1
18:30 1026 30.3 855 25.25 7.2 44.9 54 -1.6 29.2
18:35 1026 30.3 855 25.25 7.1 44.9 55 -1.3 29.7
18:40 1026 30.3 855 25.25 7.1 44.7 52 -2.1 28.3
18:45 1026 30.3 855 25.25 7.3 45.1 52 -2 28.4
18:50 1026 30.3 855 25.25 7.2 44.9 53 -1.8 28.7
18:55 1026 30.3 855 25.25 6.9 44.4 53 -2.1 28.2
19:00 1026 30.3 855 25.25 6.9 44.5 52 -2.3 27.9
19:05 1026 30.3 855 25.25 6.9 44.4 52 -2.2 28.1
19:10 1026 30.3 855 25.25 6.8 44.2 51 -2.7 27.1
19:15 1026 30.3 855 25.25 7 44.6 50 -2.7 27.1
19:20 1026 30.3 855 25.25 7.1 44.7 49 -3 26.7
19:25 1026 30.3 855 25.25 7 44.7 50 -2.8 27
19:30 1026 30.3 855 25.25 6.7 44.1 51 -2.6 27.4
19:35 1026 30.3 855 25.25 6.5 43.7 51 -2.8 26.9
19:40 1026 30.3 855 25.25 6.5 43.7 49 -3.4 25.8
19:45 1026 30.3 855 25.25 6.6 43.9 49 -3.3 26.1
19:50 1026 30.3 855 25.25 6.6 43.8 49 -3.3 26.1
19:55 1026 30.3 855 25.25 6.4 43.6 50 -3.3 26.1
20:00 1026 30.3 855 25.25 6.4 43.6 49 -3.6 25.6
20:05 1026 30.3 855 25.25 6.6 43.8 49 -3.4 26
20:10 1026 30.3 855 25.25 6.3 43.3 50 -3.3 26.1
20:15 1026 30.3 855 25.25 6.2 43.1 50 -3.6 25.6
20:20 1026 30.3 856 25.28 6.2 43.2 50 -3.5 25.8
20:25 1026 30.3 856 25.28 6.1 42.9 50 -3.7 25.4
20:30 1027 30.33 856 25.28 6.1 42.9 49 -3.8 25.1
20:35 1027 30.33 856 25.28 6.3 43.3 47 -4.1 24.6
20:40 1027 30.33 856 25.28 6.5 43.7 46 -4.4 24.1
20:45 1027 30.33 856 25.28 6.6 44 46 -4.2 24.4
20:50 1027 30.33 856 25.28 6.7 44 44 -4.6 23.7
20:55 1027 30.33 856 25.28 6.9 44.3 44 -4.5 23.9
21:00 1027 30.33 856 25.28 6.7 44.1 45 -4.5 24
21:05 1027 30.33 856 25.28 6.6 43.8 45 -4.4 24.1
21:10 1027 30.33 856 25.28 6.6 43.9 45 -4.5 23.9
21:15 1027 30.33 856 25.28 6.5 43.8 46 -4.3 24.2
21:20 1027 30.33 856 25.28 6.3 43.3 47 -4.3 24.3
21:25 1027 30.33 856 25.28 6.2 43.2 46 -4.6 23.7
21:30 1027 30.33 856 25.28 6.2 43.1 47 -4.2 24.5
21:35 1027 30.33 856 25.28 6.2 43.2 44 -5.2 22.7
21:40 1027 30.33 856 25.28 6.8 44.2 43 -5 23
21:45 1027 30.33 856 25.28 7 44.6 41 -5.3 22.5
21:50 1027 30.33 856 25.28 6.9 44.5 42 -5 22.9
21:55 1027 30.33 856 25.28 7 44.5 40 -5.6 21.9
22:00 1027 30.33 856 25.28 7.2 45 40 -5.6 21.9
22:05 1027 30.33 856 25.28 7.1 44.8 42 -5 23
22:10 1027 30.33 856 25.28 6.4 43.5 44 -4.9 23.2
22:15 1027 30.33 856 25.28 6.4 43.4 41 -5.8 21.6
22:20 1027 30.33 857 25.31 6.5 43.8 42 -5.4 22.2
22:25 1027 30.33 857 25.31 6.6 43.9 41 -5.7 21.7
22:30 1027 30.33 857 25.31 6.7 44.1 41 -5.6 21.9
22:35 1028 30.36 857 25.31 6.5 43.8 42 -5.6 22
22:40 1028 30.36 857 25.31 6.3 43.3 43 -5.5 22.2
22:45 1027 30.33 857 25.31 6.1 43.1 42 -5.7 21.7
22:50 1028 30.36 857 25.31 6.2 43.2 42 -5.7 21.8
22:55 1028 30.36 857 25.31 6.1 43 43 -5.4 22.2
23:00 1028 30.36 857 25.31 5.9 42.6 41 -6.4 20.4
23:05 1028 30.36 857 25.31 6.2 43.2 45 -5 23.1
23:10 1028 30.36 857 25.31 5 41.1 49 -4.8 23.4
23:15 1028 30.36 857 25.31 4.3 39.8 51 -4.9 23.2
23:20 1028 30.36 857 25.31 3.8 38.9 52 -5.3 22.5
23:25 1028 30.36 857 25.31 3.9 39 50 -5.5 22.2
23:30 1028 30.36 857 25.31 4.2 39.5 48 -6 21.2
23:35 1028 30.36 857 25.31 4.5 40 46 -6 21.1
23:40 1028 30.36 857 25.31 5.7 42.3 36 -8.2 17.3
23:45 1028 30.36 857 25.31 6.5 43.7 42 -5.4 22.2
23:50 1028 30.36 857 25.31 6 42.8 41 -6.3 20.6
23:55 1028 30.36 857 25.31 6.5 43.7 41 -5.7 21.7
24:00 1028 30.36 857 25.31 5.7 42.2 42 -6.2 20.8